Terminal Aerodrome Forecast
Issued by NWS

Home | Current Version | Previous Version | Text Only | Print | Product List | Glossary On
Versions: 1 2 3 4 5 6 7 8 9 10 11 12 13 14 15 16
000
FTUS45 KRIW 241100
TAFCPR
TAF
KCPR 241122Z 2412/2512 24010KT P6SM SCT100
     FM242200 25010KT P6SM VCSH SCT080 BKN120
     FM250300 22007KT P6SM SCT100=

USA.gov is the U.S. government's official web portal to all federal, state and local government web resources and services.